sensor_id;sensor_type;location;lat;lon;timestamp;P1;durP1;ratioP1;P2;durP2;ratioP2
20283;SDS011;10301;50.832;4.080;2024-01-10T00:01:24;11.40;;;6.07;;
20283;SDS011;10301;50.832;4.080;2024-01-10T00:03:55;15.50;;;6.27;;
20283;SDS011;10301;50.832;4.080;2024-01-10T00:06:21;13.07;;;6.30;;
20283;SDS011;10301;50.832;4.080;2024-01-10T00:08:48;12.37;;;6.23;;
20283;SDS011;10301;50.832;4.080;2024-01-10T00:11:14;12.07;;;6.23;;
20283;SDS011;10301;50.832;4.080;2024-01-10T00:13:39;12.57;;;5.63;;
20283;SDS011;10301;50.832;4.080;2024-01-10T00:16:05;14.47;;;6.63;;
20283;SDS011;10301;50.832;4.080;2024-01-10T00:18:31;11.00;;;5.70;;
20283;SDS011;10301;50.832;4.080;2024-01-10T00:20:57;11.27;;;6.20;;
20283;SDS011;10301;50.832;4.080;2024-01-10T00:23:23;14.17;;;6.00;;
20283;SDS011;10301;50.832;4.080;2024-01-10T00:25:49;11.73;;;5.63;;
20283;SDS011;10301;50.832;4.080;2024-01-10T00:28:14;13.77;;;6.00;;
20283;SDS011;10301;50.832;4.080;2024-01-10T00:30:43;11.97;;;6.57;;
20283;SDS011;10301;50.832;4.080;2024-01-10T00:33:12;15.00;;;6.50;;
20283;SDS011;10301;50.832;4.080;2024-01-10T00:35:38;11.73;;;6.00;;
20283;SDS011;10301;50.832;4.080;2024-01-10T00:38:04;12.57;;;6.33;;
20283;SDS011;10301;50.832;4.080;2024-01-10T00:40:29;11.60;;;5.77;;
20283;SDS011;10301;50.832;4.080;2024-01-10T00:42:55;13.63;;;6.33;;
20283;SDS011;10301;50.832;4.080;2024-01-10T00:45:20;10.43;;;5.77;;
20283;SDS011;10301;50.832;4.080;2024-01-10T00:47:48;11.40;;;6.63;;
20283;SDS011;10301;50.832;4.080;2024-01-10T00:50:14;14.40;;;6.43;;
20283;SDS011;10301;50.832;4.080;2024-01-10T00:52:40;11.40;;;5.63;;
20283;SDS011;10301;50.832;4.080;2024-01-10T00:55:05;11.63;;;6.27;;
20283;SDS011;10301;50.832;4.080;2024-01-10T00:57:31;15.10;;;6.13;;
20283;SDS011;10301;50.832;4.080;2024-01-10T00:59:57;14.53;;;7.27;;
20283;SDS011;10301;50.832;4.080;2024-01-10T01:02:23;12.37;;;6.77;;
20283;SDS011;10301;50.832;4.080;2024-01-10T01:04:48;14.13;;;6.27;;
20283;SDS011;10301;50.832;4.080;2024-01-10T01:07:14;11.17;;;5.77;;
20283;SDS011;10301;50.832;4.080;2024-01-10T01:09:40;12.50;;;6.53;;
20283;SDS011;10301;50.832;4.080;2024-01-10T01:12:05;12.63;;;7.10;;
20283;SDS011;10301;50.832;4.080;2024-01-10T01:14:31;12.93;;;6.60;;
20283;SDS011;10301;50.832;4.080;2024-01-10T01:16:57;11.80;;;6.03;;
20283;SDS011;10301;50.832;4.080;2024-01-10T01:19:22;14.77;;;6.47;;
20283;SDS011;10301;50.832;4.080;2024-01-10T01:21:48;16.47;;;7.00;;
20283;SDS011;10301;50.832;4.080;2024-01-10T01:24:13;10.30;;;6.10;;
20283;SDS011;10301;50.832;4.080;2024-01-10T01:26:39;13.77;;;6.43;;
20283;SDS011;10301;50.832;4.080;2024-01-10T01:29:05;12.33;;;6.90;;
20283;SDS011;10301;50.832;4.080;2024-01-10T01:31:31;10.80;;;6.00;;
20283;SDS011;10301;50.832;4.080;2024-01-10T01:33:56;14.77;;;6.73;;
20283;SDS011;10301;50.832;4.080;2024-01-10T01:36:22;15.03;;;6.53;;
20283;SDS011;10301;50.832;4.080;2024-01-10T01:38:48;12.03;;;6.20;;
20283;SDS011;10301;50.832;4.080;2024-01-10T01:41:14;13.33;;;5.83;;
20283;SDS011;10301;50.832;4.080;2024-01-10T01:43:40;13.07;;;6.43;;
20283;SDS011;10301;50.832;4.080;2024-01-10T01:46:06;12.93;;;6.00;;
20283;SDS011;10301;50.832;4.080;2024-01-10T01:48:32;12.90;;;6.97;;
20283;SDS011;10301;50.832;4.080;2024-01-10T01:51:00;15.43;;;6.43;;
20283;SDS011;10301;50.832;4.080;2024-01-10T01:53:28;15.77;;;6.70;;
20283;SDS011;10301;50.832;4.080;2024-01-10T01:55:54;14.13;;;6.53;;
20283;SDS011;10301;50.832;4.080;2024-01-10T01:58:20;14.93;;;7.57;;
20283;SDS011;10301;50.832;4.080;2024-01-10T02:00:48;13.07;;;6.20;;
20283;SDS011;10301;50.832;4.080;2024-01-10T02:03:14;12.40;;;6.13;;
20283;SDS011;10301;50.832;4.080;2024-01-10T02:05:39;14.63;;;6.90;;
20283;SDS011;10301;50.832;4.080;2024-01-10T02:08:05;10.27;;;6.17;;
20283;SDS011;10301;50.832;4.080;2024-01-10T02:10:31;13.43;;;6.57;;
20283;SDS011;10301;50.832;4.080;2024-01-10T02:12:57;14.70;;;7.23;;
20283;SDS011;10301;50.832;4.080;2024-01-10T02:15:23;12.77;;;6.37;;
20283;SDS011;10301;50.832;4.080;2024-01-10T02:17:49;10.87;;;6.20;;
20283;SDS011;10301;50.832;4.080;2024-01-10T02:20:15;16.20;;;6.07;;
20283;SDS011;10301;50.832;4.080;2024-01-10T02:22:45;11.47;;;5.97;;
20283;SDS011;10301;50.832;4.080;2024-01-10T02:25:12;14.07;;;7.00;;
20283;SDS011;10301;50.832;4.080;2024-01-10T02:27:39;15.37;;;7.17;;
20283;SDS011;10301;50.832;4.080;2024-01-10T02:30:05;14.67;;;6.67;;
20283;SDS011;10301;50.832;4.080;2024-01-10T02:32:32;13.10;;;6.30;;
20283;SDS011;10301;50.832;4.080;2024-01-10T02:34:58;11.60;;;6.50;;
20283;SDS011;10301;50.832;4.080;2024-01-10T02:37:24;11.43;;;5.80;;
20283;SDS011;10301;50.832;4.080;2024-01-10T02:39:50;12.53;;;6.23;;
20283;SDS011;10301;50.832;4.080;2024-01-10T02:42:16;11.70;;;6.50;;
20283;SDS011;10301;50.832;4.080;2024-01-10T02:44:42;13.23;;;6.33;;
20283;SDS011;10301;50.832;4.080;2024-01-10T02:47:08;13.00;;;6.67;;
20283;SDS011;10301;50.832;4.080;2024-01-10T02:49:35;14.27;;;6.60;;
20283;SDS011;10301;50.832;4.080;2024-01-10T02:52:00;13.13;;;6.87;;
20283;SDS011;10301;50.832;4.080;2024-01-10T02:54:26;23.47;;;7.10;;
20283;SDS011;10301;50.832;4.080;2024-01-10T02:56:52;15.27;;;6.37;;
20283;SDS011;10301;50.832;4.080;2024-01-10T02:59:17;11.93;;;6.83;;
20283;SDS011;10301;50.832;4.080;2024-01-10T03:01:43;11.10;;;6.47;;
20283;SDS011;10301;50.832;4.080;2024-01-10T03:04:09;12.70;;;6.60;;
20283;SDS011;10301;50.832;4.080;2024-01-10T03:06:35;13.43;;;6.40;;
20283;SDS011;10301;50.832;4.080;2024-01-10T03:09:00;13.97;;;6.53;;
20283;SDS011;10301;50.832;4.080;2024-01-10T03:11:27;13.47;;;6.37;;
20283;SDS011;10301;50.832;4.080;2024-01-10T03:14:03;14.37;;;6.53;;
20283;SDS011;10301;50.832;4.080;2024-01-10T03:16:34;15.33;;;7.43;;
20283;SDS011;10301;50.832;4.080;2024-01-10T03:18:59;12.43;;;6.17;;
20283;SDS011;10301;50.832;4.080;2024-01-10T03:21:25;12.77;;;6.57;;
20283;SDS011;10301;50.832;4.080;2024-01-10T03:23:58;13.90;;;6.67;;
20283;SDS011;10301;50.832;4.080;2024-01-10T03:26:25;11.10;;;5.80;;
20283;SDS011;10301;50.832;4.080;2024-01-10T03:28:51;13.33;;;6.27;;
20283;SDS011;10301;50.832;4.080;2024-01-10T03:31:17;13.33;;;7.00;;
20283;SDS011;10301;50.832;4.080;2024-01-10T03:33:43;12.63;;;6.63;;
20283;SDS011;10301;50.832;4.080;2024-01-10T03:36:10;11.87;;;6.33;;
20283;SDS011;10301;50.832;4.080;2024-01-10T03:38:38;13.53;;;6.83;;
20283;SDS011;10301;50.832;4.080;2024-01-10T03:41:04;12.50;;;6.10;;
20283;SDS011;10301;50.832;4.080;2024-01-10T03:43:30;18.40;;;7.57;;
20283;SDS011;10301;50.832;4.080;2024-01-10T03:45:56;12.23;;;6.50;;
20283;SDS011;10301;50.832;4.080;2024-01-10T03:48:22;14.07;;;7.63;;
20283;SDS011;10301;50.832;4.080;2024-01-10T03:50:48;10.43;;;5.83;;
20283;SDS011;10301;50.832;4.080;2024-01-10T03:53:13;13.37;;;6.47;;
20283;SDS011;10301;50.832;4.080;2024-01-10T03:55:39;16.23;;;6.07;;
20283;SDS011;10301;50.832;4.080;2024-01-10T03:58:05;13.40;;;6.43;;
20283;SDS011;10301;50.832;4.080;2024-01-10T04:00:30;12.97;;;6.40;;
20283;SDS011;10301;50.832;4.080;2024-01-10T04:02:56;13.60;;;6.60;;
20283;SDS011;10301;50.832;4.080;2024-01-10T04:05:22;15.10;;;7.53;;
20283;SDS011;10301;50.832;4.080;2024-01-10T04:07:50;13.03;;;6.70;;
20283;SDS011;10301;50.832;4.080;2024-01-10T04:10:16;12.13;;;6.83;;
20283;SDS011;10301;50.832;4.080;2024-01-10T04:12:42;17.03;;;7.60;;
20283;SDS011;10301;50.832;4.080;2024-01-10T04:15:08;12.17;;;7.33;;
20283;SDS011;10301;50.832;4.080;2024-01-10T04:17:34;14.27;;;7.07;;
20283;SDS011;10301;50.832;4.080;2024-01-10T04:20:00;13.57;;;6.67;;
20283;SDS011;10301;50.832;4.080;2024-01-10T04:22:27;14.07;;;6.97;;
20283;SDS011;10301;50.832;4.080;2024-01-10T04:24:53;15.00;;;6.70;;
20283;SDS011;10301;50.832;4.080;2024-01-10T04:27:18;12.93;;;7.07;;
20283;SDS011;10301;50.832;4.080;2024-01-10T04:29:44;16.57;;;7.13;;
20283;SDS011;10301;50.832;4.080;2024-01-10T04:32:10;13.37;;;7.13;;
20283;SDS011;10301;50.832;4.080;2024-01-10T04:34:35;12.30;;;6.77;;
20283;SDS011;10301;50.832;4.080;2024-01-10T04:37:01;13.37;;;7.37;;
20283;SDS011;10301;50.832;4.080;2024-01-10T04:39:27;13.57;;;6.83;;
20283;SDS011;10301;50.832;4.080;2024-01-10T04:41:53;11.83;;;6.07;;
20283;SDS011;10301;50.832;4.080;2024-01-10T04:44:19;14.20;;;7.23;;
20283;SDS011;10301;50.832;4.080;2024-01-10T04:46:44;12.87;;;5.87;;
20283;SDS011;10301;50.832;4.080;2024-01-10T04:49:10;13.47;;;6.50;;
20283;SDS011;10301;50.832;4.080;2024-01-10T04:51:35;13.23;;;6.73;;
20283;SDS011;10301;50.832;4.080;2024-01-10T04:54:02;12.80;;;6.20;;
20283;SDS011;10301;50.832;4.080;2024-01-10T04:56:27;11.50;;;6.33;;
20283;SDS011;10301;50.832;4.080;2024-01-10T04:58:53;14.80;;;6.63;;
20283;SDS011;10301;50.832;4.080;2024-01-10T05:01:18;15.30;;;7.00;;
20283;SDS011;10301;50.832;4.080;2024-01-10T05:03:45;15.13;;;6.70;;
20283;SDS011;10301;50.832;4.080;2024-01-10T05:06:10;17.13;;;6.77;;
20283;SDS011;10301;50.832;4.080;2024-01-10T05:08:36;14.47;;;6.80;;
20283;SDS011;10301;50.832;4.080;2024-01-10T05:11:02;14.83;;;6.90;;
20283;SDS011;10301;50.832;4.080;2024-01-10T05:13:28;17.63;;;7.37;;
20283;SDS011;10301;50.832;4.080;2024-01-10T05:15:54;12.10;;;6.77;;
20283;SDS011;10301;50.832;4.080;2024-01-10T05:18:20;12.50;;;6.50;;
20283;SDS011;10301;50.832;4.080;2024-01-10T05:20:47;12.87;;;7.20;;
20283;SDS011;10301;50.832;4.080;2024-01-10T05:23:13;12.27;;;7.13;;
20283;SDS011;10301;50.832;4.080;2024-01-10T05:25:39;12.53;;;6.87;;
20283;SDS011;10301;50.832;4.080;2024-01-10T05:28:05;11.57;;;6.47;;
20283;SDS011;10301;50.832;4.080;2024-01-10T05:30:31;14.30;;;7.60;;
20283;SDS011;10301;50.832;4.080;2024-01-10T05:32:57;12.93;;;6.30;;
20283;SDS011;10301;50.832;4.080;2024-01-10T05:35:23;12.03;;;6.47;;
20283;SDS011;10301;50.832;4.080;2024-01-10T05:37:51;14.70;;;7.23;;
20283;SDS011;10301;50.832;4.080;2024-01-10T05:40:16;12.87;;;7.37;;
20283;SDS011;10301;50.832;4.080;2024-01-10T05:42:43;13.70;;;7.30;;
20283;SDS011;10301;50.832;4.080;2024-01-10T05:45:09;15.33;;;7.67;;
20283;SDS011;10301;50.832;4.080;2024-01-10T05:47:35;11.80;;;6.50;;
20283;SDS011;10301;50.832;4.080;2024-01-10T05:50:01;12.23;;;6.97;;
20283;SDS011;10301;50.832;4.080;2024-01-10T05:52:27;13.97;;;7.07;;
20283;SDS011;10301;50.832;4.080;2024-01-10T05:54:53;13.17;;;6.80;;
20283;SDS011;10301;50.832;4.080;2024-01-10T05:57:19;15.23;;;7.90;;
20283;SDS011;10301;50.832;4.080;2024-01-10T05:59:46;12.70;;;7.10;;
20283;SDS011;10301;50.832;4.080;2024-01-10T06:02:12;12.43;;;6.30;;
20283;SDS011;10301;50.832;4.080;2024-01-10T06:04:41;13.63;;;7.40;;
20283;SDS011;10301;50.832;4.080;2024-01-10T06:07:06;16.23;;;8.13;;
20283;SDS011;10301;50.832;4.080;2024-01-10T06:09:32;11.93;;;7.10;;
20283;SDS011;10301;50.832;4.080;2024-01-10T06:11:58;15.00;;;8.30;;
20283;SDS011;10301;50.832;4.080;2024-01-10T06:14:23;15.13;;;6.53;;
20283;SDS011;10301;50.832;4.080;2024-01-10T06:16:49;15.63;;;6.63;;
20283;SDS011;10301;50.832;4.080;2024-01-10T06:19:15;17.43;;;6.87;;
20283;SDS011;10301;50.832;4.080;2024-01-10T06:21:40;13.10;;;6.67;;
20283;SDS011;10301;50.832;4.080;2024-01-10T06:24:07;20.17;;;8.37;;
20283;SDS011;10301;50.832;4.080;2024-01-10T06:26:33;14.00;;;7.23;;
20283;SDS011;10301;50.832;4.080;2024-01-10T06:28:58;16.57;;;7.20;;
20283;SDS011;10301;50.832;4.080;2024-01-10T06:31:24;14.07;;;6.77;;
20283;SDS011;10301;50.832;4.080;2024-01-10T06:33:50;14.17;;;6.87;;
20283;SDS011;10301;50.832;4.080;2024-01-10T06:36:15;15.37;;;7.10;;
20283;SDS011;10301;50.832;4.080;2024-01-10T06:38:41;15.33;;;7.60;;
20283;SDS011;10301;50.832;4.080;2024-01-10T06:41:10;13.47;;;7.03;;
20283;SDS011;10301;50.832;4.080;2024-01-10T06:43:38;15.37;;;7.67;;
20283;SDS011;10301;50.832;4.080;2024-01-10T06:46:05;15.07;;;7.50;;
20283;SDS011;10301;50.832;4.080;2024-01-10T06:48:31;14.60;;;7.20;;
20283;SDS011;10301;50.832;4.080;2024-01-10T06:50:57;66.07;;;22.90;;
20283;SDS011;10301;50.832;4.080;2024-01-10T06:53:24;14.53;;;7.17;;
20283;SDS011;10301;50.832;4.080;2024-01-10T06:55:50;14.97;;;7.43;;
20283;SDS011;10301;50.832;4.080;2024-01-10T06:58:15;15.33;;;8.03;;
20283;SDS011;10301;50.832;4.080;2024-01-10T07:00:41;15.90;;;7.63;;
20283;SDS011;10301;50.832;4.080;2024-01-10T07:03:07;12.47;;;6.10;;
20283;SDS011;10301;50.832;4.080;2024-01-10T07:05:33;13.10;;;6.27;;
20283;SDS011;10301;50.832;4.080;2024-01-10T07:07:59;14.97;;;6.63;;
20283;SDS011;10301;50.832;4.080;2024-01-10T07:10:28;12.77;;;6.00;;
20283;SDS011;10301;50.832;4.080;2024-01-10T07:12:54;12.97;;;6.20;;
20283;SDS011;10301;50.832;4.080;2024-01-10T07:15:20;13.67;;;6.77;;
20283;SDS011;10301;50.832;4.080;2024-01-10T07:17:47;12.27;;;6.50;;
20283;SDS011;10301;50.832;4.080;2024-01-10T07:20:13;12.30;;;6.50;;
20283;SDS011;10301;50.832;4.080;2024-01-10T07:22:38;14.00;;;6.63;;
20283;SDS011;10301;50.832;4.080;2024-01-10T07:25:07;13.10;;;6.83;;
20283;SDS011;10301;50.832;4.080;2024-01-10T07:27:39;12.60;;;6.57;;
20283;SDS011;10301;50.832;4.080;2024-01-10T07:30:05;15.60;;;6.00;;
20283;SDS011;10301;50.832;4.080;2024-01-10T07:32:38;10.33;;;6.17;;
20283;SDS011;10301;50.832;4.080;2024-01-10T07:35:08;14.63;;;5.93;;
20283;SDS011;10301;50.832;4.080;2024-01-10T07:37:40;14.10;;;6.47;;
20283;SDS011;10301;50.832;4.080;2024-01-10T07:40:07;11.33;;;6.63;;
20283;SDS011;10301;50.832;4.080;2024-01-10T07:42:35;12.53;;;8.10;;
20283;SDS011;10301;50.832;4.080;2024-01-10T07:45:02;14.17;;;6.80;;
20283;SDS011;10301;50.832;4.080;2024-01-10T07:47:29;13.10;;;7.43;;
20283;SDS011;10301;50.832;4.080;2024-01-10T07:49:56;15.37;;;8.57;;
20283;SDS011;10301;50.832;4.080;2024-01-10T07:52:22;14.33;;;6.50;;
20283;SDS011;10301;50.832;4.080;2024-01-10T07:54:48;13.70;;;7.47;;
20283;SDS011;10301;50.832;4.080;2024-01-10T07:57:14;13.43;;;7.00;;
20283;SDS011;10301;50.832;4.080;2024-01-10T07:59:39;12.90;;;7.30;;
20283;SDS011;10301;50.832;4.080;2024-01-10T08:02:05;15.00;;;6.90;;
20283;SDS011;10301;50.832;4.080;2024-01-10T08:04:31;13.77;;;6.47;;
20283;SDS011;10301;50.832;4.080;2024-01-10T08:06:56;17.87;;;7.83;;
20283;SDS011;10301;50.832;4.080;2024-01-10T08:09:22;18.13;;;6.47;;
20283;SDS011;10301;50.832;4.080;2024-01-10T08:11:49;13.63;;;6.50;;
20283;SDS011;10301;50.832;4.080;2024-01-10T08:14:15;15.67;;;7.60;;
20283;SDS011;10301;50.832;4.080;2024-01-10T08:16:41;14.33;;;7.03;;
20283;SDS011;10301;50.832;4.080;2024-01-10T08:19:07;19.67;;;7.37;;
20283;SDS011;10301;50.832;4.080;2024-01-10T08:21:33;18.27;;;7.70;;
20283;SDS011;10301;50.832;4.080;2024-01-10T08:23:59;15.23;;;7.10;;
20283;SDS011;10301;50.832;4.080;2024-01-10T08:26:26;11.83;;;6.57;;
20283;SDS011;10301;50.832;4.080;2024-01-10T08:28:52;14.50;;;6.70;;
20283;SDS011;10301;50.832;4.080;2024-01-10T08:31:18;11.57;;;6.93;;
20283;SDS011;10301;50.832;4.080;2024-01-10T08:33:44;13.33;;;7.77;;
20283;SDS011;10301;50.832;4.080;2024-01-10T08:36:10;11.00;;;6.63;;
20283;SDS011;10301;50.832;4.080;2024-01-10T08:38:36;14.53;;;7.03;;
20283;SDS011;10301;50.832;4.080;2024-01-10T08:41:02;14.50;;;6.17;;
20283;SDS011;10301;50.832;4.080;2024-01-10T08:43:28;15.57;;;7.90;;
20283;SDS011;10301;50.832;4.080;2024-01-10T08:45:54;14.93;;;6.93;;
20283;SDS011;10301;50.832;4.080;2024-01-10T08:48:20;13.87;;;6.73;;
20283;SDS011;10301;50.832;4.080;2024-01-10T08:50:45;17.40;;;7.83;;
20283;SDS011;10301;50.832;4.080;2024-01-10T08:53:11;12.40;;;6.57;;
20283;SDS011;10301;50.832;4.080;2024-01-10T08:55:37;14.63;;;7.13;;
20283;SDS011;10301;50.832;4.080;2024-01-10T08:58:03;12.70;;;7.10;;
20283;SDS011;10301;50.832;4.080;2024-01-10T09:00:28;15.73;;;7.07;;
20283;SDS011;10301;50.832;4.080;2024-01-10T09:02:54;16.67;;;6.27;;
20283;SDS011;10301;50.832;4.080;2024-01-10T09:05:20;13.93;;;7.57;;
20283;SDS011;10301;50.832;4.080;2024-01-10T09:07:47;15.00;;;7.13;;
20283;SDS011;10301;50.832;4.080;2024-01-10T09:10:12;15.87;;;7.67;;
20283;SDS011;10301;50.832;4.080;2024-01-10T09:12:38;15.13;;;7.33;;
20283;SDS011;10301;50.832;4.080;2024-01-10T09:15:04;14.10;;;7.40;;
20283;SDS011;10301;50.832;4.080;2024-01-10T09:17:33;14.37;;;7.40;;
20283;SDS011;10301;50.832;4.080;2024-01-10T09:19:58;16.03;;;8.53;;
20283;SDS011;10301;50.832;4.080;2024-01-10T09:22:27;14.77;;;7.97;;
20283;SDS011;10301;50.832;4.080;2024-01-10T09:24:53;18.83;;;7.37;;
20283;SDS011;10301;50.832;4.080;2024-01-10T09:27:19;16.27;;;7.47;;
20283;SDS011;10301;50.832;4.080;2024-01-10T09:29:44;14.17;;;7.47;;
20283;SDS011;10301;50.832;4.080;2024-01-10T09:32:10;13.43;;;7.80;;
20283;SDS011;10301;50.832;4.080;2024-01-10T09:34:36;15.83;;;8.43;;
20283;SDS011;10301;50.832;4.080;2024-01-10T09:37:01;14.30;;;7.40;;
20283;SDS011;10301;50.832;4.080;2024-01-10T09:39:27;16.43;;;8.60;;
20283;SDS011;10301;50.832;4.080;2024-01-10T09:41:53;18.13;;;8.47;;
20283;SDS011;10301;50.832;4.080;2024-01-10T09:44:18;15.93;;;8.97;;
20283;SDS011;10301;50.832;4.080;2024-01-10T09:46:48;14.83;;;7.67;;
20283;SDS011;10301;50.832;4.080;2024-01-10T09:49:18;19.63;;;7.77;;
20283;SDS011;10301;50.832;4.080;2024-01-10T09:51:47;14.30;;;7.30;;
20283;SDS011;10301;50.832;4.080;2024-01-10T09:54:13;15.43;;;8.10;;
20283;SDS011;10301;50.832;4.080;2024-01-10T09:56:41;16.10;;;8.10;;
20283;SDS011;10301;50.832;4.080;2024-01-10T09:59:07;16.90;;;7.70;;
20283;SDS011;10301;50.832;4.080;2024-01-10T10:01:38;14.07;;;7.67;;
20283;SDS011;10301;50.832;4.080;2024-01-10T10:04:04;14.23;;;7.73;;
20283;SDS011;10301;50.832;4.080;2024-01-10T10:06:32;13.20;;;6.63;;
20283;SDS011;10301;50.832;4.080;2024-01-10T10:08:59;15.93;;;7.80;;
20283;SDS011;10301;50.832;4.080;2024-01-10T10:11:25;15.67;;;8.00;;
20283;SDS011;10301;50.832;4.080;2024-01-10T10:13:51;15.63;;;7.90;;
20283;SDS011;10301;50.832;4.080;2024-01-10T10:16:22;15.40;;;8.57;;
20283;SDS011;10301;50.832;4.080;2024-01-10T10:18:52;15.77;;;8.13;;
20283;SDS011;10301;50.832;4.080;2024-01-10T10:21:23;19.50;;;8.80;;
20283;SDS011;10301;50.832;4.080;2024-01-10T10:24:00;19.40;;;8.43;;
20283;SDS011;10301;50.832;4.080;2024-01-10T10:26:27;17.53;;;7.67;;
20283;SDS011;10301;50.832;4.080;2024-01-10T10:28:54;13.37;;;7.93;;
20283;SDS011;10301;50.832;4.080;2024-01-10T10:31:21;14.83;;;7.80;;
20283;SDS011;10301;50.832;4.080;2024-01-10T10:33:49;15.63;;;8.83;;
20283;SDS011;10301;50.832;4.080;2024-01-10T10:36:20;20.87;;;8.87;;
20283;SDS011;10301;50.832;4.080;2024-01-10T10:38:46;17.63;;;8.93;;
20283;SDS011;10301;50.832;4.080;2024-01-10T10:41:15;17.60;;;8.40;;
20283;SDS011;10301;50.832;4.080;2024-01-10T10:43:43;17.63;;;7.63;;
20283;SDS011;10301;50.832;4.080;2024-01-10T10:46:09;17.93;;;8.43;;
20283;SDS011;10301;50.832;4.080;2024-01-10T10:48:37;15.97;;;8.47;;
20283;SDS011;10301;50.832;4.080;2024-01-10T10:53:38;18.10;;;8.47;;
20283;SDS011;10301;50.832;4.080;2024-01-10T10:56:05;17.33;;;8.30;;
20283;SDS011;10301;50.832;4.080;2024-01-10T10:58:33;16.70;;;8.63;;
20283;SDS011;10301;50.832;4.080;2024-01-10T11:01:01;15.27;;;7.87;;
20283;SDS011;10301;50.832;4.080;2024-01-10T11:03:33;15.70;;;8.40;;
20283;SDS011;10301;50.832;4.080;2024-01-10T11:06:01;17.77;;;7.67;;
20283;SDS011;10301;50.832;4.080;2024-01-10T11:08:28;18.97;;;8.73;;
20283;SDS011;10301;50.832;4.080;2024-01-10T11:11:00;17.07;;;8.07;;
20283;SDS011;10301;50.832;4.080;2024-01-10T11:24:50;20.13;;;9.40;;
20283;SDS011;10301;50.832;4.080;2024-01-10T11:27:17;17.17;;;8.50;;
20283;SDS011;10301;50.832;4.080;2024-01-10T11:29:45;18.13;;;9.80;;
20283;SDS011;10301;50.832;4.080;2024-01-10T11:32:15;19.80;;;9.93;;
20283;SDS011;10301;50.832;4.080;2024-01-10T11:37:38;16.90;;;8.67;;
20283;SDS011;10301;50.832;4.080;2024-01-10T11:40:08;19.00;;;8.40;;
20283;SDS011;10301;50.832;4.080;2024-01-10T11:42:46;17.90;;;8.90;;
20283;SDS011;10301;50.832;4.080;2024-01-10T11:48:00;18.07;;;8.73;;
20283;SDS011;10301;50.832;4.080;2024-01-10T11:50:25;18.23;;;9.40;;
20283;SDS011;10301;50.832;4.080;2024-01-10T11:52:55;21.10;;;9.23;;
20283;SDS011;10301;50.832;4.080;2024-01-10T11:58:12;17.20;;;8.53;;
20283;SDS011;10301;50.832;4.080;2024-01-10T12:00:37;19.60;;;7.67;;
20283;SDS011;10301;50.832;4.080;2024-01-10T12:03:04;18.03;;;9.13;;
20283;SDS011;10301;50.832;4.080;2024-01-10T12:05:30;16.37;;;9.07;;
20283;SDS011;10301;50.832;4.080;2024-01-10T12:07:57;16.73;;;8.40;;
20283;SDS011;10301;50.832;4.080;2024-01-10T12:10:25;14.77;;;8.63;;
20283;SDS011;10301;50.832;4.080;2024-01-10T12:12:52;20.07;;;8.87;;
20283;SDS011;10301;50.832;4.080;2024-01-10T12:15:19;14.47;;;8.23;;
20283;SDS011;10301;50.832;4.080;2024-01-10T12:17:45;18.57;;;9.83;;
20283;SDS011;10301;50.832;4.080;2024-01-10T12:20:11;17.60;;;9.00;;
20283;SDS011;10301;50.832;4.080;2024-01-10T12:22:37;17.97;;;9.77;;
20283;SDS011;10301;50.832;4.080;2024-01-10T12:25:06;15.47;;;8.83;;
20283;SDS011;10301;50.832;4.080;2024-01-10T12:27:32;19.43;;;9.90;;
20283;SDS011;10301;50.832;4.080;2024-01-10T12:29:59;21.63;;;10.43;;
20283;SDS011;10301;50.832;4.080;2024-01-10T12:32:27;19.60;;;10.23;;
20283;SDS011;10301;50.832;4.080;2024-01-10T12:35:03;13.70;;;8.77;;
20283;SDS011;10301;50.832;4.080;2024-01-10T12:37:29;19.87;;;9.23;;
20283;SDS011;10301;50.832;4.080;2024-01-10T12:39:56;18.30;;;9.13;;
20283;SDS011;10301;50.832;4.080;2024-01-10T12:42:22;19.20;;;9.70;;
20283;SDS011;10301;50.832;4.080;2024-01-10T12:44:48;19.27;;;9.40;;
20283;SDS011;10301;50.832;4.080;2024-01-10T12:47:18;21.33;;;10.07;;
20283;SDS011;10301;50.832;4.080;2024-01-10T12:49:47;17.87;;;9.93;;
20283;SDS011;10301;50.832;4.080;2024-01-10T12:52:13;17.97;;;8.93;;
20283;SDS011;10301;50.832;4.080;2024-01-10T12:54:39;19.67;;;9.90;;
20283;SDS011;10301;50.832;4.080;2024-01-10T12:57:05;19.43;;;9.50;;
20283;SDS011;10301;50.832;4.080;2024-01-10T12:59:32;20.90;;;10.03;;
20283;SDS011;10301;50.832;4.080;2024-01-10T13:01:57;18.70;;;9.57;;
20283;SDS011;10301;50.832;4.080;2024-01-10T13:04:24;19.40;;;10.27;;
20283;SDS011;10301;50.832;4.080;2024-01-10T13:06:49;19.23;;;9.80;;
20283;SDS011;10301;50.832;4.080;2024-01-10T13:09:15;20.10;;;10.00;;
20283;SDS011;10301;50.832;4.080;2024-01-10T13:11:41;19.77;;;10.73;;
20283;SDS011;10301;50.832;4.080;2024-01-10T13:14:07;18.70;;;10.63;;
20283;SDS011;10301;50.832;4.080;2024-01-10T13:16:32;19.83;;;10.60;;
20283;SDS011;10301;50.832;4.080;2024-01-10T13:18:58;22.77;;;10.30;;
20283;SDS011;10301;50.832;4.080;2024-01-10T13:21:24;21.90;;;10.37;;
20283;SDS011;10301;50.832;4.080;2024-01-10T13:23:50;24.30;;;10.93;;
20283;SDS011;10301;50.832;4.080;2024-01-10T13:26:16;23.10;;;10.13;;
20283;SDS011;10301;50.832;4.080;2024-01-10T13:28:42;18.97;;;9.07;;
20283;SDS011;10301;50.832;4.080;2024-01-10T13:31:08;21.80;;;10.33;;
20283;SDS011;10301;50.832;4.080;2024-01-10T13:33:35;18.47;;;9.30;;
20283;SDS011;10301;50.832;4.080;2024-01-10T13:36:01;16.93;;;9.30;;
20283;SDS011;10301;50.832;4.080;2024-01-10T13:38:28;20.83;;;10.07;;
20283;SDS011;10301;50.832;4.080;2024-01-10T13:40:53;19.50;;;10.70;;
20283;SDS011;10301;50.832;4.080;2024-01-10T13:43:19;17.83;;;9.10;;
20283;SDS011;10301;50.832;4.080;2024-01-10T13:45:45;24.20;;;9.73;;
20283;SDS011;10301;50.832;4.080;2024-01-10T13:48:10;20.57;;;9.47;;
20283;SDS011;10301;50.832;4.080;2024-01-10T13:50:36;17.87;;;9.97;;
20283;SDS011;10301;50.832;4.080;2024-01-10T13:53:02;21.33;;;10.17;;
20283;SDS011;10301;50.832;4.080;2024-01-10T13:55:29;23.73;;;9.93;;
20283;SDS011;10301;50.832;4.080;2024-01-10T13:57:55;17.80;;;10.33;;
20283;SDS011;10301;50.832;4.080;2024-01-10T14:00:21;24.80;;;10.00;;
20283;SDS011;10301;50.832;4.080;2024-01-10T14:02:47;23.67;;;10.30;;
20283;SDS011;10301;50.832;4.080;2024-01-10T14:05:13;20.67;;;10.43;;
20283;SDS011;10301;50.832;4.080;2024-01-10T14:07:39;19.13;;;9.77;;
20283;SDS011;10301;50.832;4.080;2024-01-10T14:10:09;20.90;;;10.50;;
20283;SDS011;10301;50.832;4.080;2024-01-10T14:12:35;19.63;;;10.43;;
20283;SDS011;10301;50.832;4.080;2024-01-10T14:15:01;18.97;;;10.23;;
20283;SDS011;10301;50.832;4.080;2024-01-10T14:17:27;18.30;;;9.80;;
20283;SDS011;10301;50.832;4.080;2024-01-10T14:19:53;18.47;;;10.07;;
20283;SDS011;10301;50.832;4.080;2024-01-10T14:22:19;19.33;;;10.20;;
20283;SDS011;10301;50.832;4.080;2024-01-10T14:24:45;18.33;;;9.30;;
20283;SDS011;10301;50.832;4.080;2024-01-10T14:27:10;18.27;;;10.10;;
20283;SDS011;10301;50.832;4.080;2024-01-10T14:29:36;20.57;;;11.07;;
20283;SDS011;10301;50.832;4.080;2024-01-10T14:32:02;18.57;;;10.07;;
20283;SDS011;10301;50.832;4.080;2024-01-10T14:34:28;20.27;;;10.67;;
20283;SDS011;10301;50.832;4.080;2024-01-10T14:36:54;23.10;;;11.40;;
20283;SDS011;10301;50.832;4.080;2024-01-10T14:39:20;22.27;;;10.07;;
20283;SDS011;10301;50.832;4.080;2024-01-10T14:41:46;20.67;;;10.73;;
20283;SDS011;10301;50.832;4.080;2024-01-10T14:44:12;24.97;;;12.07;;
20283;SDS011;10301;50.832;4.080;2024-01-10T14:46:37;21.67;;;10.43;;
20283;SDS011;10301;50.832;4.080;2024-01-10T14:49:03;20.23;;;10.77;;
20283;SDS011;10301;50.832;4.080;2024-01-10T14:51:29;23.93;;;12.33;;